Time;durP1;ratioP1;P1;durP2;ratioP2;P2;SDS_P1;SDS_P2;PMS_P1;PMS_P2;Temp;Humidity;BMP_temperature;BMP_pressure;BME280_temperature;BME280_humidity;BME280_pressure;Samples;Min_cycle;Max_cycle;Signal;HPM_P1;HPM_P2
2022/06/09 05:35:09;;;;;;;97.38;29.40;;;;;;;20.85;45.03;99386.19;5880081;23;20259;-84
2022/06/09 05:45:58;;;;;;;89.47;25.27;;;;;;;21.06;43.19;99359.84;4868472;29;20045;-88
2022/06/09 05:48:24;;;;;;;87.82;25.20;;;;;;;21.29;44.08;99376.31;4859178;29;20063;-90
2022/06/09 05:50:52;;;;;;;99.20;26.48;;;;;;;21.43;43.42;99387.59;4831243;29;20042;-93
2022/06/09 05:53:18;;;;;;;83.18;24.52;;;;;;;21.51;42.25;99375.34;4827587;29;20090;-88
2022/06/09 05:55:45;;;;;;;;;;;;;;;21.61;41.81;99390.50;4829588;29;20732;-86
2022/06/09 05:58:11;;;;;;;70.72;22.67;;;;;;;21.66;42.15;99383.81;4817920;29;20073;-88
2022/06/09 06:00:45;;;;;;;78.10;23.48;;;;;;;21.78;41.59;99378.72;4849360;29;20454;-84
2022/06/09 06:03:13;;;;;;;74.70;23.52;;;;;;;21.79;41.64;99371.97;4859412;29;20053;-87
2022/06/09 06:08:25;;;;;;;70.78;20.25;;;;;;;22.00;40.27;99371.31;4845510;29;20085;-89
2022/06/09 06:10:52;;;;;;;73.97;22.83;;;;;;;22.15;40.34;99372.25;4837705;29;20046;-88
2022/06/09 06:13:18;;;;;;;;;;;;;;;22.21;40.11;99372.63;4853388;29;20053;-81
2022/06/09 06:15:45;;;;;;;88.32;24.40;;;;;;;22.25;39.10;99370.66;4845886;29;19972;-90
2022/06/09 06:18:12;;;;;;;83.28;23.63;;;;;;;22.27;40.28;99371.88;4844870;29;20048;-84
2022/06/09 06:20:38;;;;;;;95.35;22.25;;;;;;;22.30;41.31;99361.94;4822495;29;20041;-86
2022/06/09 06:23:04;;;;;;;86.85;23.02;;;;;;;22.45;41.33;99371.16;4813435;29;20567;-88
2022/06/09 06:25:31;;;;;;;77.40;20.58;;;;;;;22.55;41.46;99375.16;4837670;29;20049;-87
2022/06/09 06:27:58;;;;;;;70.65;21.33;;;;;;;22.62;41.25;99378.00;4815023;29;20077;-87
2022/06/09 06:30:25;;;;;;;173.55;26.90;;;;;;;22.61;40.81;99352.13;4815269;29;20052;-87
2022/06/09 06:32:52;;;;;;;286.00;35.50;;;;;;;22.81;40.48;99371.28;4831054;29;20073;-88
2022/06/09 06:35:18;;;;;;;175.68;26.52;;;;;;;22.86;40.68;99362.53;4822387;29;20420;-87
2022/06/09 06:37:46;;;;;;;124.90;22.42;;;;;;;22.90;39.61;99352.19;4816092;29;20047;-86
2022/06/09 06:40:14;;;;;;;75.43;18.92;;;;;;;23.06;39.63;99363.00;4819681;29;20109;-87
2022/06/09 06:42:41;;;;;;;76.45;19.65;;;;;;;23.18;39.96;99365.44;4813941;29;20048;-88
2022/06/09 06:45:11;;;;;;;90.70;21.00;;;;;;;23.17;38.35;99347.09;4820235;29;20073;-89
2022/06/09 06:47:38;;;;;;;70.13;18.92;;;;;;;23.07;37.27;99334.72;4827221;29;20495;-89
2022/06/09 06:54:12;;;;;;;56.75;18.35;;;;;;;23.03;32.90;99305.25;4839793;29;20518;-87
2022/06/09 06:56:38;;;;;;;58.25;17.25;;;;;;;23.44;34.29;99362.25;4828190;29;20065;-88
2022/06/09 06:59:04;;;;;;;75.65;16.88;;;;;;;23.38;34.88;99338.72;4850737;29;20041;-90
2022/06/09 07:05:32;;;;;;;58.40;16.40;;;;;;;23.57;33.53;99348.66;4875591;29;20052;-87
2022/06/09 07:07:58;;;;;;;82.07;16.02;;;;;;;23.68;34.19;99357.09;4883040;29;20045;-88
2022/06/09 07:10:24;;;;;;;121.10;23.25;;;;;;;23.77;35.24;99360.25;4817216;29;20109;-89
2022/06/09 07:12:52;;;;;;;107.80;21.23;;;;;;;23.71;35.57;99341.50;4830305;29;20047;-88
2022/06/09 07:15:19;;;;;;;67.55;16.25;;;;;;;23.89;33.57;99350.66;4876088;29;20495;-87
2022/06/09 07:17:45;;;;;;;72.53;17.60;;;;;;;23.92;35.10;99349.84;4831618;29;20456;-89
2022/06/09 07:20:13;;;;;;;62.63;17.38;;;;;;;24.03;33.96;99353.41;4832057;29;20092;-87
2022/06/09 07:22:39;;;;;;;194.18;25.98;;;;;;;24.04;32.16;99351.41;4830973;29;20040;-88
2022/06/09 07:25:06;;;;;;;134.23;23.58;;;;;;;24.04;32.99;99349.44;4851913;24;20113;-88
2022/06/09 07:27:33;;;;;;;95.07;19.58;;;;;;;24.00;32.45;99345.03;4815755;29;20045;-89
2022/06/09 07:29:59;;;;;;;104.00;20.23;;;;;;;23.99;30.07;99349.84;4823011;29;20045;-89
2022/06/09 07:32:25;;;;;;;95.57;19.23;;;;;;;24.01;29.51;99347.44;4818214;29;20346;-87
2022/06/09 07:34:51;;;;;;;55.22;15.80;;;;;;;23.96;30.21;99342.25;4802484;29;20499;-89
2022/06/09 07:37:17;;;;;;;43.22;14.98;;;;;;;23.99;28.18;99349.84;4819005;29;20038;-86
2022/06/09 07:39:43;;;;;;;62.55;15.35;;;;;;;24.01;29.69;99353.03;4787156;29;20056;-90
2022/06/09 07:42:12;;;;;;;282.70;35.22;;;;;;;23.64;30.23;99311.59;4794130;29;20141;-89
2022/06/09 07:44:39;;;;;;;118.32;19.60;;;;;;;23.91;29.33;99354.66;4833388;29;20045;-89
2022/06/09 07:47:05;;;;;;;49.45;14.05;;;;;;;24.01;29.30;99352.25;4801147;29;20121;-89
2022/06/09 07:49:33;;;;;;;50.53;14.73;;;;;;;24.05;28.96;99350.22;4795441;29;20052;-89
2022/06/09 07:52:00;;;;;;;65.03;15.13;;;;;;;24.05;30.08;99353.81;4801692;29;20053;-89
2022/06/09 07:54:26;;;;;;;79.28;15.43;;;;;;;24.20;31.20;99353.75;4802621;29;20407;-87
2022/06/09 07:56:53;;;;;;;60.05;14.18;;;;;;;24.35;31.04;99342.13;4786989;29;20889;-86
2022/06/09 07:59:20;;;;;;;42.92;12.30;;;;;;;24.40;30.03;99335.31;4801802;29;20081;-87
2022/06/09 08:01:47;;;;;;;44.95;12.90;;;;;;;24.48;28.92;99341.72;4801802;29;20450;-87
2022/06/09 08:04:13;;;;;;;60.65;15.18;;;;;;;24.49;29.30;99344.09;4786559;29;20098;-85
2022/06/09 08:06:39;;;;;;;;;;;;;;;24.56;29.21;99346.06;4801728;29;20412;-87
2022/06/09 08:09:05;;;;;;;68.80;17.50;;;;;;;24.56;28.45;99344.06;4801365;29;19935;-86
2022/06/09 08:11:37;;;;;;;73.10;17.88;;;;;;;24.52;28.36;99337.69;4794562;29;20506;-86
2022/06/09 08:14:06;;;;;;;70.57;18.08;;;;;;;24.47;28.86;99324.16;4786324;29;20049;-86
2022/06/09 08:16:33;;;;;;;83.15;18.73;;;;;;;24.51;29.04;99319.34;4800740;29;20098;-86
2022/06/09 08:19:01;;;;;;;68.18;17.10;;;;;;;24.67;30.57;99335.63;4786032;29;20041;-86
2022/06/09 08:21:27;;;;;;;268.83;36.03;;;;;;;24.74;28.41;99335.59;4785376;29;20053;-86
2022/06/09 08:23:55;;;;;;;93.95;20.13;;;;;;;24.77;28.73;99337.56;4799973;29;20602;-85
2022/06/09 08:26:21;;;;;;;;;;;;;;;24.78;29.29;99333.56;4799689;29;20488;-86
2022/06/09 08:28:49;;;;;;;78.75;17.65;;;;;;;24.78;27.60;99333.56;4799609;29;19928;-86
2022/06/09 08:31:15;;;;;;;;;;;;;;;24.71;27.14;99332.81;4800126;29;20070;-86
2022/06/09 08:33:42;;;;;;;;;;;;;;;24.63;27.82;99336.84;4799572;29;19925;-88
2022/06/09 08:36:08;;;;;;;175.82;20.90;;;;;;;24.58;27.59;99346.47;4799498;29;20015;-87
2022/06/09 08:38:36;;;;;;;71.68;16.88;;;;;;;24.63;27.70;99342.44;4799325;29;20042;-86
2022/06/09 08:41:27;;;;;;;117.70;18.52;;;;;;;24.70;27.26;99347.97;4784029;29;20046;-86
2022/06/09 08:44:05;;;;;;;94.32;17.45;;;;;;;24.77;27.81;99334.78;4798797;29;20133;-85
2022/06/09 08:46:49;;;;;;;63.08;15.50;;;;;;;24.84;27.33;99334.72;4783553;29;20464;-85
2022/06/09 08:49:44;;;;;;;58.78;14.70;;;;;;;24.95;27.91;99337.44;4821528;29;20042;-85
2022/06/09 08:52:38;;;;;;;111.63;16.48;;;;;;;24.98;27.21;99330.25;4786711;29;20054;-89
2022/06/09 08:55:20;;;;;;;63.72;15.20;;;;;;;25.07;27.97;99333.38;4798121;29;20049;-87
2022/06/09 08:57:47;;;;;;;107.07;17.27;;;;;;;25.13;28.58;99322.56;4806382;29;20065;-85
2022/06/09 09:06:07;;;;;;;29.08;9.07;;;;;;;25.30;25.10;99330.03;4863266;23;20083;-88
2022/06/09 09:08:38;;;;;;;37.92;12.57;;;;;;;25.19;26.71;99312.53;4842907;29;20043;-87
2022/06/09 09:11:20;;;;;;;29.42;9.43;;;;;;;25.18;26.26;99302.56;4838705;29;20133;-87
2022/06/09 09:14:00;;;;;;;25.95;9.65;;;;;;;25.41;25.70;99324.34;4837657;29;20041;-89
2022/06/09 09:16:30;;;;;;;168.07;19.50;;;;;;;25.29;26.49;99309.63;4821029;29;20176;-86
2022/06/09 10:23:40;;;;;;;44.28;12.73;;;;;;;26.28;24.72;99285.81;4760597;30;20059;-92
2022/06/09 10:26:59;;;;;;;39.65;10.90;;;;;;;26.47;25.70;99294.38;4779381;29;20537;-91
2022/06/09 10:37:53;;;;;;;45.90;11.23;;;;;;;26.57;26.05;99263.84;4802687;29;20050;-90
2022/06/09 10:40:31;;;;;;;35.80;10.52;;;;;;;26.89;25.99;99271.75;4769818;29;20042;-84
2022/06/09 10:43:16;;;;;;;54.95;10.90;;;;;;;27.02;24.24;99283.97;4771330;29;20107;-85
2022/06/09 10:46:03;;;;;;;27.70;10.80;;;;;;;27.06;26.35;99273.47;4767514;29;20053;-85
2022/06/09 10:55:18;;;;;;;34.88;10.63;;;;;;;27.27;24.76;99263.13;4775951;29;20042;-81
2022/06/09 10:58:14;;;;;;;40.15;10.35;;;;;;;27.26;24.55;99270.78;4796273;29;20085;-86
2022/06/09 11:00:47;;;;;;;59.65;11.90;;;;;;;27.38;25.33;99266.53;4796245;29;20046;-89
2022/06/09 11:03:20;;;;;;;29.30;9.90;;;;;;;27.45;24.66;99263.63;4801619;29;20551;-87
2022/06/09 11:06:06;;;;;;;40.92;10.57;;;;;;;27.50;22.95;99263.13;4802019;29;20051;-93
2022/06/09 11:08:42;;;;;;;29.50;9.43;;;;;;;27.49;22.90;99249.53;4813610;29;20098;-89
2022/06/09 11:11:15;;;;;;;29.65;9.75;;;;;;;27.43;22.86;99251.25;4845479;29;20059;-89
2022/06/09 11:13:50;;;;;;;46.45;11.30;;;;;;;27.29;22.72;99235.44;4844053;29;20136;-81
2022/06/09 11:16:34;;;;;;;43.67;10.98;;;;;;;27.48;23.62;99243.09;4842933;29;20049;-94
2022/06/09 11:19:25;;;;;;;32.00;9.82;;;;;;;27.64;24.57;99240.38;4843790;29;20053;-88
2022/06/09 11:21:57;;;;;;;35.72;11.13;;;;;;;27.69;23.01;99236.28;4845744;29;20053;-92
2022/06/09 11:24:42;;;;;;;28.52;10.55;;;;;;;27.53;23.46;99236.19;4847487;29;20103;-88
2022/06/09 11:27:20;;;;;;;30.30;10.43;;;;;;;27.49;22.84;99241.88;4841444;29;20126;-81
2022/06/09 11:30:22;;;;;;;38.42;11.85;;;;;;;27.41;22.63;99241.22;4842625;29;20049;-89
2022/06/09 11:33:12;;;;;;;107.30;15.40;;;;;;;27.55;24.15;99245.78;4840785;29;20048;-82
2022/06/09 11:36:03;;;;;;;48.08;12.90;;;;;;;27.63;24.11;99250.03;4829450;29;20093;-92
2022/06/09 11:39:08;;;;;;;46.30;11.55;;;;;;;27.83;24.29;99250.06;4845385;29;20371;-95
2022/06/09 11:41:50;;;;;;;66.35;13.20;;;;;;;28.02;25.15;99250.50;4803471;29;20057;-85
2022/06/09 11:44:37;;;;;;;111.22;16.23;;;;;;;28.18;23.51;99247.75;4839158;29;20044;-88
2022/06/09 11:47:27;;;;;;;86.28;16.60;;;;;;;28.16;24.03;99224.91;4837757;29;20148;-81
2022/06/09 11:50:00;;;;;;;62.42;12.88;;;;;;;27.93;22.55;99247.50;4842785;29;20098;-84
2022/06/09 11:52:45;;;;;;;54.85;13.07;;;;;;;27.71;23.03;99239.44;4823325;29;20522;-86
2022/06/09 11:55:23;;;;;;;87.18;15.02;;;;;;;27.93;24.97;99239.84;4837128;29;20697;-87
2022/06/09 11:57:51;;;;;;;62.20;13.35;;;;;;;28.21;27.15;99232.84;4820766;29;20050;-81
2022/06/09 12:00:27;;;;;;;40.50;11.32;;;;;;;28.47;24.60;99239.50;4833909;29;20089;-81
2022/06/09 12:02:59;;;;;;;27.70;10.00;;;;;;;28.64;23.36;99236.72;4845634;29;20037;-80
2022/06/09 12:05:52;;;;;;;26.38;10.93;;;;;;;28.70;24.05;99232.94;4845352;29;20049;-86
2022/06/09 12:08:29;;;;;;;29.10;10.05;;;;;;;28.67;22.04;99230.22;4856921;29;20507;-88
2022/06/09 12:11:14;;;;;;;35.03;10.20;;;;;;;28.77;22.90;99224.34;4845627;29;20456;-93
2022/06/09 12:13:55;;;;;;;61.58;13.82;;;;;;;28.88;23.24;99226.91;4855754;29;20056;-83
2022/06/09 12:16:27;;;;;;;69.07;15.23;;;;;;;28.99;22.97;99226.63;4853007;29;20140;-82
2022/06/09 12:19:19;;;;;;;22.85;10.10;;;;;;;29.02;23.29;99222.97;4855045;29;20078;-91
2022/06/09 12:22:00;;;;;;;67.93;13.57;;;;;;;29.18;23.25;99219.34;4857235;29;20053;-95
2022/06/09 12:24:32;;;;;;;72.82;13.23;;;;;;;28.93;21.92;99223.53;4857939;29;20119;-91
2022/06/09 12:27:35;;;;;;;32.17;11.32;;;;;;;28.68;24.12;99223.38;4848512;29;20041;-86
2022/06/09 12:30:01;;;;;;;39.28;11.93;;;;;;;28.84;23.57;99219.75;4832664;29;20065;-90
2022/06/09 12:32:45;;;;;;;71.75;13.30;;;;;;;29.05;24.19;99215.66;4844841;29;20101;-90
2022/06/09 12:40:22;;;;;;;284.90;28.23;;;;;;;29.28;23.21;99209.81;4853186;29;20929;-82
2022/06/09 12:42:54;;;;;;;127.60;16.73;;;;;;;29.30;22.48;99218.59;4856424;29;20077;-85
2022/06/09 12:45:32;;;;;;;77.40;12.40;;;;;;;29.40;22.79;99219.53;4807260;29;20077;-87
2022/06/09 13:22:28;;;;;;;91.85;14.13;;;;;;;29.86;24.67;99195.72;4961003;23;20065;-88
2022/06/09 13:51:56;;;;;;;403.83;39.70;;;;;;;29.20;25.01;99169.00;4858157;29;20081;-87
2022/06/09 13:59:21;;;;;;;137.65;19.98;;;;;;;29.21;27.55;99173.41;4865832;29;20106;-89
2022/06/09 14:06:43;;;;;;;36.70;12.90;;;;;;;29.55;25.80;99170.03;4783282;29;20047;-89
2022/06/09 14:09:14;;;;;;;37.63;14.10;;;;;;;29.18;27.92;99163.81;4862346;29;20050;-88
2022/06/09 14:11:42;;;;;;;43.60;21.08;;;;;;;29.16;26.16;99176.75;4854716;29;20151;-88
2022/06/09 14:16:58;;;;;;;35.97;12.07;;;;;;;29.03;26.92;99176.69;4857032;29;20083;-90
2022/06/09 14:19:27;;;;;;;44.67;13.05;;;;;;;28.88;27.80;99161.38;4861575;29;20052;-89
2022/06/09 14:43:33;;;;;;;325.38;39.58;;;;;;;28.56;29.18;99165.78;4753329;30;20222;-88
2022/06/09 15:47:49;;;;;;;434.85;44.17;;;;;;;27.21;32.48;99164.59;4846397;29;20060;-82
2022/06/09 15:50:17;;;;;;;;;;;;;;;27.21;33.62;99163.81;4851757;29;20046;-82
2022/06/09 15:52:43;;;;;;;377.60;41.03;;;;;;;27.21;32.44;99167.41;4862258;29;19924;-84
2022/06/09 15:55:15;;;;;;;407.90;42.50;;;;;;;27.21;32.41;99175.81;4853457;29;20427;-81
2022/06/09 15:57:43;;;;;;;331.42;37.95;;;;;;;27.08;33.82;99161.59;4860100;29;20053;-82
2022/06/09 16:09:56;;;;;;;359.60;43.30;;;;;;;26.76;34.02;99186.63;4845619;29;20049;-81
2022/06/09 16:13:20;;;;;;;411.02;53.97;;;;;;;26.46;35.36;99151.84;4926343;23;20078;-81
2022/06/09 16:20:18;;;;;;;210.82;34.90;;;;;;;26.01;35.21;99126.88;4747868;30;19930;-84
2022/06/09 16:23:52;;;;;;;320.85;34.80;;;;;;;26.14;35.04;99178.31;4697225;30;20525;-85
2022/06/09 16:26:26;;;;;;;482.15;46.67;;;;;;;25.76;35.20;99157.97;4698050;30;20127;-90
2022/06/09 16:28:57;;;;;;;358.52;40.08;;;;;;;25.70;36.24;99170.88;4698545;30;20054;-90
2022/06/09 16:32:01;;;;;;;305.92;32.70;;;;;;;25.53;35.78;99145.50;4684727;30;20090;-86
2022/06/09 16:34:40;;;;;;;180.95;24.35;;;;;;;25.70;36.21;99184.88;4689906;30;20133;-83
2022/06/09 16:37:13;;;;;;;204.95;23.38;;;;;;;25.57;36.72;99167.03;4688636;30;20053;-89
2022/06/09 16:42:58;;;;;;;77.75;17.85;;;;;;;25.26;37.86;99139.00;4693951;30;20053;-90
2022/06/09 16:45:27;;;;;;;64.00;17.15;;;;;;;25.47;37.93;99163.94;4698377;30;20061;-90
2022/06/09 16:47:54;;;;;;;133.15;24.63;;;;;;;25.35;38.36;99152.50;4684424;30;20065;-90
2022/06/09 16:50:23;;;;;;;97.90;19.08;;;;;;;25.54;38.06;99185.47;4698858;30;20413;-89
2022/06/09 16:52:53;;;;;;;79.63;18.98;;;;;;;25.31;38.81;99150.53;4697447;30;20057;-90
2022/06/09 16:55:20;;;;;;;73.03;16.45;;;;;;;25.47;38.86;99182.75;4697609;30;20546;-90
2022/06/09 16:57:47;;;;;;;;;;;;;;;25.46;39.11;99179.16;4732962;30;20462;-87
2022/06/09 17:00:29;;;;;;;54.38;17.27;;;;;;;25.33;39.59;99172.50;4822543;29;20537;-87
2022/06/09 17:02:57;;;;;;;105.72;20.00;;;;;;;25.31;39.62;99181.31;4850153;29;20082;-86
2022/06/09 17:05:26;;;;;;;66.03;16.85;;;;;;;25.20;40.47;99179.81;4841425;29;20102;-85
2022/06/09 17:07:59;;;;;;;81.03;18.30;;;;;;;25.15;40.62;99189.47;4828614;29;20046;-87
2022/06/09 17:10:28;;;;;;;62.25;17.33;;;;;;;25.00;40.78;99187.97;4824454;29;20045;-84
2022/06/09 17:12:55;;;;;;;72.18;18.75;;;;;;;25.00;39.69;99191.59;4840716;29;20054;-84
2022/06/09 17:15:21;;;;;;;57.28;18.75;;;;;;;24.97;40.24;99189.63;4809741;29;20048;-87
2022/06/09 17:17:49;;;;;;;70.63;22.33;;;;;;;24.90;39.86;99189.69;4840570;29;20049;-88
2022/06/09 17:20:16;;;;;;;70.88;23.80;;;;;;;24.89;41.15;99182.50;4825443;29;20046;-83
2022/06/09 17:22:42;;;;;;;79.10;25.77;;;;;;;24.87;42.21;99193.31;4820138;29;20049;-81
2022/06/09 17:25:11;;;;;;;85.35;25.65;;;;;;;24.77;42.76;99192.19;4842227;29;20074;-89
2022/06/09 17:27:38;;;;;;;90.68;28.02;;;;;;;24.66;42.95;99197.06;4825788;29;20443;-84
2022/06/09 17:30:08;;;;;;;86.80;26.67;;;;;;;24.49;42.77;99187.59;4840975;29;20049;-81
2022/06/09 17:32:34;;;;;;;94.38;23.63;;;;;;;24.38;44.23;99181.28;4838972;29;20049;-83
2022/06/09 17:35:01;;;;;;;112.75;27.88;;;;;;;24.36;43.84;99189.25;4839009;29;20046;-82
2022/06/09 17:37:28;;;;;;;176.85;39.58;;;;;;;24.32;43.27;99191.28;4838826;29;20046;-80
2022/06/09 17:39:56;;;;;;;106.63;28.45;;;;;;;24.27;43.17;99181.34;4824488;29;20034;-82
2022/06/09 17:42:22;;;;;;;76.53;24.55;;;;;;;24.18;43.12;99174.63;4823324;29;20070;-86
2022/06/09 17:44:49;;;;;;;;;;;;;;;24.24;43.19;99175.75;4838600;29;20046;-80
2022/06/09 17:47:15;;;;;;;;;;;;;;;24.22;43.52;99180.97;4847287;29;20780;-85
2022/06/09 17:49:43;;;;;;;67.70;21.15;;;;;;;24.19;43.31;99190.16;4833623;29;19924;-88
2022/06/09 17:52:10;;;;;;;86.65;23.23;;;;;;;24.11;44.24;99183.84;4844474;29;20888;-82
2022/06/09 17:54:37;;;;;;;74.97;23.20;;;;;;;23.98;44.19;99175.13;4837101;29;20163;-80
2022/06/09 17:57:04;;;;;;;64.22;23.00;;;;;;;24.06;43.90;99187.03;4835994;29;20076;-82
2022/06/09 17:59:33;;;;;;;101.95;22.48;;;;;;;24.05;43.69;99186.25;4834553;29;20045;-80
2022/06/09 18:02:00;;;;;;;105.22;23.73;;;;;;;23.99;44.20;99182.28;4818379;29;20515;-81
2022/06/09 18:04:29;;;;;;;70.93;23.83;;;;;;;23.99;44.26;99182.28;4835072;29;20110;-81
2022/06/09 18:06:56;;;;;;;80.03;23.60;;;;;;;23.97;44.32;99183.91;4817992;29;20045;-83
2022/06/09 18:09:23;;;;;;;75.55;22.48;;;;;;;23.96;44.11;99182.31;4834801;29;20069;-82
2022/06/09 18:11:50;;;;;;;81.07;23.17;;;;;;;23.90;43.66;99173.56;4803240;29;20724;-87
2022/06/09 18:14:16;;;;;;;62.17;21.45;;;;;;;23.97;43.72;99184.69;4832561;29;20053;-80
2022/06/09 18:16:42;;;;;;;57.88;21.00;;;;;;;23.91;43.78;99175.16;4836162;29;20066;-81
2022/06/09 18:19:09;;;;;;;79.65;20.92;;;;;;;23.91;43.85;99184.34;4819096;29;20061;-84
2022/06/09 18:21:37;;;;;;;72.25;20.50;;;;;;;23.90;43.95;99181.94;4815875;29;20523;-85
2022/06/09 18:24:08;;;;;;;62.60;21.88;;;;;;;23.88;44.61;99181.56;4815445;29;20057;-81
2022/06/09 18:26:35;;;;;;;84.68;22.73;;;;;;;23.82;44.43;99183.19;4832230;29;20392;-86
2022/06/09 18:29:06;;;;;;;99.70;23.80;;;;;;;23.75;44.94;99178.44;4833146;29;20060;-82
2022/06/09 18:31:40;;;;;;;163.70;26.90;;;;;;;23.60;45.97;99171.28;4826568;29;20038;-90
2022/06/09 18:50:53;;;;;;;110.40;28.13;;;;;;;23.32;46.41;99180.53;5780698;23;20045;-90
2022/06/09 18:53:21;;;;;;;89.82;25.02;;;;;;;23.34;46.79;99186.50;4867459;29;20140;-89
2022/06/09 18:55:48;;;;;;;101.05;27.55;;;;;;;23.08;47.61;99149.53;4869492;29;20045;-87
2022/06/09 18:58:21;;;;;;;95.68;26.60;;;;;;;23.19;48.36;99177.38;4825003;29;20440;-90
2022/06/09 19:00:56;;;;;;;87.20;27.63;;;;;;;23.22;47.48;99187.72;4833249;29;20799;-82
2022/06/09 19:03:28;;;;;;;70.35;24.30;;;;;;;23.21;47.26;99181.38;4815815;29;20041;-84
2022/06/09 19:06:00;;;;;;;75.38;22.98;;;;;;;23.19;47.02;99175.38;4863413;29;20049;-82
2022/06/09 19:08:28;;;;;;;69.43;23.60;;;;;;;23.31;46.97;99187.28;4860880;29;20105;-80
2022/06/09 19:10:55;;;;;;;68.75;25.45;;;;;;;23.28;46.80;99182.50;4844397;29;20104;-86
2022/06/09 19:13:24;;;;;;;72.78;23.52;;;;;;;23.40;46.05;99201.63;4824886;29;20049;-83
2022/06/09 19:15:53;;;;;;;99.50;21.50;;;;;;;23.24;46.44;99229.16;4823130;23;20057;-85
2022/06/09 19:18:22;;;;;;;74.10;22.80;;;;;;;23.26;46.45;99218.41;4833283;29;20165;-81
2022/06/09 19:20:50;;;;;;;53.50;19.83;;;;;;;23.32;45.88;99214.00;4831448;29;20076;-81
2022/06/09 19:23:19;;;;;;;72.57;19.85;;;;;;;23.43;46.36;99211.97;4836855;29;20053;-82
2022/06/09 19:25:46;;;;;;;74.93;20.30;;;;;;;23.43;46.80;99220.34;4837132;29;20041;-86
2022/06/09 19:28:17;;;;;;;61.50;19.15;;;;;;;23.40;46.56;99226.72;4833228;29;20137;-84
2022/06/09 19:30:49;;;;;;;83.60;20.98;;;;;;;23.36;46.88;99223.94;4806424;29;20144;-90
2022/06/09 19:33:20;;;;;;;88.85;20.88;;;;;;;23.32;47.10;99211.22;4819409;29;20054;-87
2022/06/09 19:35:49;;;;;;;77.03;20.05;;;;;;;23.24;48.05;99216.00;4809281;29;20408;-85
2022/06/09 19:38:18;;;;;;;72.47;21.90;;;;;;;23.12;48.71;99214.44;4804057;29;20179;-85
2022/06/09 19:40:47;;;;;;;100.35;22.38;;;;;;;22.94;47.89;99213.63;4817200;29;20046;-86
2022/06/09 19:43:15;;;;;;;71.05;19.35;;;;;;;23.05;48.75;99219.22;4827894;29;20453;-84
2022/06/09 19:45:43;;;;;;;38.97;17.48;;;;;;;23.03;48.59;99219.63;4832829;29;20042;-82
2022/06/09 19:48:14;;;;;;;94.88;21.45;;;;;;;22.96;49.26;99220.41;4828868;29;20046;-84
2022/06/09 19:50:44;;;;;;;250.77;26.13;;;;;;;22.91;48.79;99225.56;4835027;29;20046;-83
2022/06/09 19:53:13;;;;;;;107.78;20.05;;;;;;;22.86;49.35;99226.75;4838584;29;20107;-85
2022/06/09 19:55:44;;;;;;;89.50;18.95;;;;;;;22.88;49.08;99227.16;4834705;29;20572;-85
2022/06/09 19:58:20;;;;;;;92.95;18.95;;;;;;;22.87;49.18;99216.41;4827799;29;20125;-80
2022/06/09 20:00:48;;;;;;;171.25;23.45;;;;;;;22.83;49.63;99218.41;4834950;29;20129;-79
2022/06/09 20:03:14;;;;;;;154.38;24.02;;;;;;;22.78;49.69;99216.00;4844689;29;20042;-82
2022/06/09 20:05:41;;;;;;;129.35;20.63;;;;;;;22.78;50.27;99225.19;4840215;29;20070;-82
2022/06/09 20:08:15;;;;;;;146.95;22.85;;;;;;;22.73;50.85;99223.56;4842102;29;20540;-82
2022/06/09 20:10:43;;;;;;;129.90;23.70;;;;;;;22.68;50.92;99212.00;4844610;29;20046;-82
2022/06/09 20:13:13;;;;;;;114.75;23.73;;;;;;;22.64;51.11;99208.44;4846316;29;20085;-81
2022/06/09 20:15:45;;;;;;;;;;;;;;;22.61;51.15;99215.59;4856665;29;20053;-84
2022/06/09 20:18:17;;;;;;;73.53;18.23;;;;;;;22.52;51.21;99204.06;4865195;29;19930;-81
2022/06/09 20:20:49;;;;;;;86.93;19.52;;;;;;;22.56;51.85;99218.78;4865344;29;20048;-79
2022/06/09 20:23:17;;;;;;;93.15;19.27;;;;;;;22.48;51.80;99201.28;4864891;29;20120;-82
2022/06/09 20:25:49;;;;;;;54.05;17.67;;;;;;;22.51;52.10;99214.38;4864517;29;20141;-81
2022/06/09 20:28:21;;;;;;;40.95;16.55;;;;;;;22.52;51.94;99220.78;4864591;29;20419;-81
2022/06/09 20:30:50;;;;;;;49.25;16.52;;;;;;;22.52;52.11;99229.13;4864633;29;20053;-81
2022/06/09 20:33:17;;;;;;;48.35;16.80;;;;;;;22.51;52.26;99221.94;4846637;29;20145;-84
2022/06/09 20:35:45;;;;;;;42.70;16.98;;;;;;;22.48;52.35;99225.50;4845017;29;20595;-84
2022/06/09 20:38:19;;;;;;;58.20;18.30;;;;;;;22.47;52.38;99233.09;4854309;29;20045;-85
2022/06/09 20:40:46;;;;;;;51.88;17.20;;;;;;;22.46;53.25;99227.91;4845088;29;20045;-84
2022/06/09 20:43:16;;;;;;;122.75;19.33;;;;;;;22.37;53.67;99228.28;4845321;29;20046;-86
2022/06/09 20:45:50;;;;;;;78.20;19.20;;;;;;;22.33;53.64;99230.28;4860859;29;20048;-83
2022/06/09 20:48:25;;;;;;;61.40;19.38;;;;;;;22.35;53.38;99232.66;4861893;29;20045;-83
2022/06/09 20:50:53;;;;;;;56.03;18.45;;;;;;;22.33;53.33;99235.06;4860715;29;20045;-84
2022/06/09 20:53:22;;;;;;;36.50;16.33;;;;;;;22.31;53.16;99223.50;4861717;29;20049;-83
2022/06/09 20:55:52;;;;;;;42.70;16.70;;;;;;;22.34;53.40;99233.84;4861856;29;20041;-82
2022/06/09 20:58:22;;;;;;;55.83;17.85;;;;;;;22.26;53.99;99219.91;4861341;29;20037;-85
2022/06/09 21:00:48;;;;;;;58.55;17.33;;;;;;;22.26;54.02;99224.69;4861417;29;20508;-84
2022/06/09 21:03:17;;;;;;;71.22;20.02;;;;;;;22.25;54.40;99228.66;4861131;29;20045;-85
2022/06/09 21:05:44;;;;;;;55.38;19.08;;;;;;;22.21;55.55;99234.22;4845230;29;20056;-84
2022/06/09 21:08:10;;;;;;;54.58;19.45;;;;;;;22.17;54.30;99224.25;4861836;29;20147;-84
2022/06/09 21:18:57;;;;;;;67.30;22.90;;;;;;;21.99;54.97;99238.09;4860767;29;20522;-84
2022/06/09 21:21:23;;;;;;;63.67;22.88;;;;;;;21.93;55.85;99237.69;4860928;29;20634;-83
2022/06/09 21:23:51;;;;;;;57.55;22.17;;;;;;;21.91;55.39;99239.25;4861098;29;20460;-85
2022/06/09 21:26:19;;;;;;;63.72;21.67;;;;;;;21.84;56.31;99234.44;4861228;29;20115;-84
2022/06/09 21:28:45;;;;;;;59.22;20.25;;;;;;;21.83;56.80;99244.00;4860820;29;20473;-84
2022/06/09 21:31:11;;;;;;;61.08;20.95;;;;;;;21.76;56.88;99243.97;4861089;29;20053;-84
2022/06/09 21:33:38;;;;;;;42.17;18.52;;;;;;;21.67;55.49;99233.19;4860389;29;20042;-84
2022/06/09 21:36:04;;;;;;;53.03;20.70;;;;;;;21.70;55.70;99237.97;4861090;29;20102;-84
2022/06/09 21:38:31;;;;;;;44.42;19.75;;;;;;;21.69;55.62;99230.81;4860939;29;20049;-84
2022/06/09 21:40:57;;;;;;;53.20;20.35;;;;;;;21.71;56.10;99244.31;4860674;29;20077;-84
2022/06/09 21:43:24;;;;;;;56.20;21.48;;;;;;;21.68;56.73;99245.09;4851246;29;20416;-84
2022/06/09 21:45:51;;;;;;;83.38;23.33;;;;;;;21.57;57.38;99229.16;4860262;29;20124;-85
2022/06/09 21:48:18;;;;;;;83.80;25.48;;;;;;;21.58;56.71;99235.50;4859851;29;20046;-84
2022/06/09 21:50:45;;;;;;;70.47;26.02;;;;;;;21.55;57.15;99237.06;4844073;29;20114;-84
2022/06/09 21:53:12;;;;;;;88.57;30.48;;;;;;;21.54;56.51;99235.50;4860077;29;20054;-85
2022/06/09 21:55:40;;;;;;;88.57;30.70;;;;;;;21.51;56.67;99229.91;4860083;29;20427;-84
2022/06/09 21:58:07;;;;;;;71.93;25.63;;;;;;;21.48;56.27;99234.25;4860537;29;20397;-84
2022/06/09 22:00:38;;;;;;;;;;;;;;;21.50;56.51;99237.47;4861060;29;20041;-84
2022/06/09 22:03:05;;;;;;;52.15;21.17;;;;;;;21.50;56.22;99245.00;4860193;29;20455;-84
2022/06/09 22:05:31;;;;;;;44.95;19.45;;;;;;;21.52;55.98;99242.63;4860481;29;20415;-84
2022/06/09 22:08:00;;;;;;;46.67;19.60;;;;;;;21.52;56.06;99235.09;4860418;29;20053;-84
2022/06/09 22:10:29;;;;;;;;;;;;;;;21.52;56.09;99243.44;4861073;29;20038;-82
2022/06/09 22:12:57;;;;;;;54.70;21.20;;;;;;;21.50;56.58;99237.47;4859781;29;20386;-84
2022/06/09 22:15:24;;;;;;;45.55;19.27;;;;;;;21.48;56.58;99236.25;4859874;29;20057;-84
2022/06/09 22:17:51;;;;;;;54.60;18.58;;;;;;;21.47;56.33;99245.78;4859983;29;20041;-84
2022/06/09 22:20:23;;;;;;;51.78;19.30;;;;;;;21.46;57.03;99244.19;4860335;29;20069;-84
2022/06/09 22:22:51;;;;;;;50.50;19.73;;;;;;;21.44;57.28;99239.00;4843832;29;20084;-84